createdAt,value
2019-02-04T00:01:23.057Z,14.77
2019-02-04T00:03:53.572Z,19.97
2019-02-04T00:06:24.103Z,14.90
2019-02-04T00:08:54.516Z,18.17
2019-02-04T00:11:25.072Z,14.50
2019-02-04T00:13:55.654Z,14.00
2019-02-04T00:16:26.288Z,13.73
2019-02-04T00:18:56.835Z,16.10
2019-02-04T00:21:27.043Z,21.87
2019-02-04T00:23:57.409Z,20.23
2019-02-04T00:26:27.799Z,10.93
2019-02-04T00:28:58.248Z,14.80
2019-02-04T00:31:28.679Z,13.07
2019-02-04T00:33:59.058Z,15.73
2019-02-04T00:36:29.559Z,18.17
2019-02-04T00:39:02.450Z,18.30
2019-02-04T00:41:30.597Z,20.77
2019-02-04T00:44:00.906Z,20.20
2019-02-04T00:46:31.440Z,15.63
2019-02-04T00:49:01.979Z,16.10
2019-02-04T00:51:32.233Z,12.77
2019-02-04T00:54:03.060Z,8.03
2019-02-04T00:56:33.523Z,15.70
2019-02-04T00:59:04.027Z,15.10
2019-02-04T01:01:34.479Z,14.20
2019-02-04T01:04:04.896Z,11.00
2019-02-04T01:06:35.167Z,13.57
2019-02-04T01:09:08.312Z,15.03
2019-02-04T01:11:38.841Z,18.57
2019-02-04T01:14:09.027Z,11.33
2019-02-04T01:16:39.524Z,14.30
2019-02-04T01:19:09.818Z,12.50
2019-02-04T01:21:40.083Z,14.73
2019-02-04T01:24:10.666Z,12.63
2019-02-04T01:26:41.199Z,13.93
2019-02-04T01:29:11.769Z,15.57
2019-02-04T01:31:42.103Z,14.87
2019-02-04T01:34:12.371Z,15.90
2019-02-04T01:36:42.935Z,17.80
2019-02-04T01:39:13.472Z,18.13
2019-02-04T01:41:44.071Z,15.07
2019-02-04T01:44:14.532Z,15.07
2019-02-04T01:46:45.115Z,17.53
2019-02-04T01:49:15.634Z,13.47
2019-02-04T01:51:46.076Z,16.17
2019-02-04T01:54:16.491Z,18.77
2019-02-04T01:56:46.906Z,16.67
2019-02-04T01:59:17.350Z,14.47
2019-02-04T02:01:47.642Z,13.13
2019-02-04T02:04:18.090Z,12.60
2019-02-04T02:06:48.574Z,9.60
2019-02-04T02:09:25.667Z,9.93
2019-02-04T02:11:56.187Z,13.80
2019-02-04T02:14:26.111Z,9.47
2019-02-04T02:16:56.621Z,11.10
2019-02-04T02:19:27.098Z,10.13
2019-02-04T02:21:57.622Z,11.33
2019-02-04T02:24:28.057Z,11.17
2019-02-04T02:26:58.772Z,9.63
2019-02-04T02:29:29.047Z,11.70
2019-02-04T02:31:59.392Z,9.07
2019-02-04T02:34:29.904Z,8.53
2019-02-04T02:37:00.333Z,12.67
2019-02-04T02:39:30.771Z,12.43
2019-02-04T02:42:00.996Z,10.40
2019-02-04T02:44:31.366Z,12.73
2019-02-04T02:47:01.732Z,8.27
2019-02-04T02:49:32.010Z,10.80
2019-02-04T02:52:02.535Z,9.47
2019-02-04T02:54:32.944Z,15.27
2019-02-04T02:57:03.292Z,13.60
2019-02-04T02:59:33.037Z,9.57
2019-02-04T03:02:03.286Z,10.67
2019-02-04T03:04:33.831Z,10.93
2019-02-04T03:07:04.439Z,14.73
2019-02-04T03:09:34.618Z,13.80
2019-02-04T03:12:05.040Z,15.23
2019-02-04T03:14:35.459Z,8.50
2019-02-04T03:17:05.954Z,12.63
2019-02-04T03:19:36.419Z,14.17
2019-02-04T03:22:06.917Z,11.07
2019-02-04T03:24:37.412Z,11.07
2019-02-04T03:27:07.762Z,12.43
2019-02-04T03:29:38.023Z,7.13
2019-02-04T03:32:08.523Z,4.70
2019-02-04T03:34:38.379Z,10.17
2019-02-04T03:37:08.737Z,11.63
2019-02-04T03:39:39.255Z,13.67
2019-02-04T03:42:09.751Z,11.67
2019-02-04T03:44:40.118Z,14.60
2019-02-04T03:47:10.478Z,11.67
2019-02-04T03:49:40.995Z,13.17
2019-02-04T03:52:11.360Z,12.47
2019-02-04T03:54:41.003Z,13.80
2019-02-04T03:57:11.342Z,12.53
2019-02-04T03:59:41.747Z,13.70
2019-02-04T04:02:12.262Z,12.33
2019-02-04T04:04:42.790Z,8.80
2019-02-04T04:07:13.265Z,9.57
2019-02-04T04:09:43.779Z,13.43
2019-02-04T04:12:14.266Z,7.40
2019-02-04T04:14:44.667Z,10.33
2019-02-04T04:17:15.224Z,7.47
2019-02-04T04:19:45.520Z,7.47
2019-02-04T04:22:15.869Z,6.10
2019-02-04T04:24:46.223Z,11.13
2019-02-04T04:27:16.775Z,9.43
2019-02-04T04:29:47.051Z,7.93
2019-02-04T04:32:17.372Z,10.60
2019-02-04T04:34:47.725Z,9.90
2019-02-04T04:37:18.178Z,11.10
2019-02-04T04:39:48.656Z,11.87
2019-02-04T04:42:18.968Z,10.13
2019-02-04T04:44:49.640Z,11.77
2019-02-04T04:47:20.059Z,8.27
2019-02-04T04:49:50.644Z,8.60
2019-02-04T04:52:21.951Z,11.77
2019-02-04T04:54:52.439Z,11.07
2019-02-04T04:57:22.691Z,11.17
2019-02-04T04:59:53.228Z,10.73
2019-02-04T05:02:23.437Z,12.30
2019-02-04T05:04:54.319Z,10.27
2019-02-04T05:07:24.844Z,11.10
2019-02-04T05:09:55.511Z,9.33
2019-02-04T05:12:25.919Z,8.97
2019-02-04T05:14:56.375Z,9.07
2019-02-04T05:17:26.752Z,9.53
2019-02-04T05:19:57.120Z,9.77
2019-02-04T05:22:27.559Z,10.67
2019-02-04T05:24:57.913Z,11.70
2019-02-04T05:27:28.268Z,8.83
2019-02-04T05:29:58.619Z,9.90
2019-02-04T05:32:29.123Z,12.40
2019-02-04T05:34:59.030Z,10.23
2019-02-04T05:37:29.361Z,11.80
2019-02-04T05:39:59.080Z,10.27
2019-02-04T05:42:29.392Z,11.73
2019-02-04T05:44:59.864Z,11.00
2019-02-04T05:47:30.456Z,10.67
2019-02-04T05:50:00.924Z,10.60
2019-02-04T05:52:31.275Z,11.43
2019-02-04T05:55:01.939Z,9.83
2019-02-04T05:57:32.359Z,8.77
2019-02-04T06:00:02.930Z,8.57
2019-02-04T06:02:33.300Z,7.90
2019-02-04T06:05:03.896Z,8.97
2019-02-04T06:07:34.384Z,10.10
2019-02-04T06:10:05.009Z,11.33
2019-02-04T06:12:35.538Z,8.97
2019-02-04T06:15:07.020Z,7.83
2019-02-04T06:17:37.385Z,11.87
2019-02-04T06:20:09.663Z,12.17
2019-02-04T06:22:40.191Z,48.30
2019-02-04T06:25:10.848Z,80.83
2019-02-04T06:27:41.415Z,20.10
2019-02-04T06:30:12.353Z,26.07
2019-02-04T06:32:42.918Z,15.47
2019-02-04T06:35:13.631Z,31.53
2019-02-04T06:37:46.741Z,20.30
2019-02-04T06:40:14.735Z,16.37
2019-02-04T06:42:45.167Z,9.80
2019-02-04T06:45:16.097Z,10.47
2019-02-04T06:47:46.524Z,9.53
2019-02-04T06:50:17.612Z,16.60
2019-02-04T06:52:48.164Z,12.13
2019-02-04T06:55:24.186Z,15.80
2019-02-04T06:57:54.458Z,9.47
2019-02-04T07:00:24.999Z,25.83
2019-02-04T07:02:55.535Z,31.93
2019-02-04T07:05:26.008Z,11.73
2019-02-04T07:07:56.495Z,15.03
2019-02-04T07:10:27.159Z,16.87
2019-02-04T07:12:57.729Z,18.33
2019-02-04T07:15:28.203Z,13.10
2019-02-04T07:18:01.770Z,10.37
2019-02-04T07:20:29.271Z,10.37
2019-02-04T07:22:59.763Z,10.23
2019-02-04T07:25:30.179Z,11.07
2019-02-04T07:28:00.722Z,11.00
2019-02-04T07:30:31.185Z,11.33
2019-02-04T07:33:01.818Z,12.33
2019-02-04T07:35:31.935Z,10.07
2019-02-04T07:38:01.966Z,24.90
2019-02-04T07:40:33.200Z,32.67
2019-02-04T07:43:04.830Z,23.03
2019-02-04T07:45:35.832Z,38.50
2019-02-04T07:48:06.199Z,11.73
2019-02-04T07:50:36.357Z,18.43
2019-02-04T07:53:06.386Z,47.43
2019-02-04T07:55:36.498Z,58.07
2019-02-04T07:58:06.595Z,45.03
2019-02-04T08:00:36.771Z,18.73
2019-02-04T08:03:06.836Z,31.60
2019-02-04T08:05:36.995Z,16.33
2019-02-04T08:08:07.171Z,14.47
2019-02-04T08:10:37.599Z,13.77
2019-02-04T08:13:07.984Z,12.40
2019-02-04T08:15:39.066Z,10.97
2019-02-04T08:18:09.760Z,10.70
2019-02-04T08:20:41.522Z,9.90
2019-02-04T08:23:11.943Z,11.73
2019-02-04T08:25:42.506Z,12.37
2019-02-04T08:28:12.836Z,11.13
2019-02-04T08:30:43.341Z,8.40
2019-02-04T08:33:13.854Z,8.00
2019-02-04T08:35:44.293Z,9.97
2019-02-04T08:38:14.579Z,9.70
2019-02-04T08:40:45.058Z,9.20
2019-02-04T08:43:15.138Z,10.33
2019-02-04T08:45:45.276Z,9.73
2019-02-04T08:48:14.788Z,8.57
2019-02-04T08:50:44.828Z,7.40
2019-02-04T08:53:14.967Z,8.43
2019-02-04T08:55:45.579Z,10.27
2019-02-04T08:58:18.811Z,25.13
2019-02-04T09:00:48.934Z,8.67
2019-02-04T09:03:18.946Z,28.73
2019-02-04T09:05:49.042Z,40.97
2019-02-04T09:08:19.119Z,8.67
2019-02-04T09:10:49.227Z,20.77
2019-02-04T09:13:19.252Z,32.40
2019-02-04T09:15:49.334Z,17.90
2019-02-04T09:18:19.386Z,68.00
2019-02-04T09:20:49.455Z,39.73
2019-02-04T09:23:19.476Z,71.97
2019-02-04T09:28:33.859Z,9.63
2019-02-04T09:31:03.960Z,8.87
2019-02-04T09:33:34.024Z,11.60
2019-02-04T09:36:04.176Z,30.83
2019-02-04T09:38:34.220Z,54.67
2019-02-04T09:41:04.315Z,42.50
2019-02-04T09:43:34.324Z,12.60
2019-02-04T09:46:04.448Z,10.60
2019-02-04T09:48:34.523Z,22.27
2019-02-04T09:51:04.896Z,20.73
2019-02-04T09:53:34.940Z,52.03
2019-02-04T09:56:05.516Z,15.73
2019-02-04T09:58:35.810Z,8.90
2019-02-04T10:01:06.060Z,8.53
2019-02-04T10:03:36.088Z,6.27
2019-02-04T10:06:06.225Z,8.40
2019-02-04T10:08:36.237Z,10.77
2019-02-04T10:11:06.310Z,10.33
2019-02-04T10:13:36.311Z,9.20
2019-02-04T10:16:06.457Z,9.47
2019-02-04T10:18:37.980Z,11.80
2019-02-04T10:21:06.629Z,16.37
2019-02-04T10:23:36.651Z,11.10
2019-02-04T10:26:06.749Z,15.43
2019-02-04T10:28:36.777Z,13.47
2019-02-04T10:31:07.105Z,12.67
2019-02-04T10:33:37.078Z,10.57
2019-02-04T10:36:07.236Z,11.50
2019-02-04T10:38:37.300Z,15.77
2019-02-04T10:41:07.428Z,11.43
2019-02-04T10:43:37.767Z,12.80
2019-02-04T10:46:07.886Z,11.50
2019-02-04T10:48:37.909Z,13.27
2019-02-04T10:51:07.465Z,12.77
2019-02-04T10:53:37.465Z,12.07
2019-02-04T10:56:07.703Z,12.50
2019-02-04T10:58:37.712Z,14.07
2019-02-04T11:01:38.358Z,13.43
2019-02-04T11:04:08.464Z,12.97
2019-02-04T11:06:38.596Z,12.17
2019-02-04T11:09:09.146Z,16.47
2019-02-04T11:11:39.588Z,15.53
2019-02-04T11:14:09.693Z,18.87
2019-02-04T11:16:39.796Z,17.83
2019-02-04T11:19:09.969Z,11.23
2019-02-04T11:21:40.134Z,14.13
2019-02-04T11:24:10.248Z,12.53
2019-02-04T11:26:40.344Z,12.00
2019-02-04T11:29:10.429Z,11.10
2019-02-04T11:32:00.513Z,11.83
2019-02-04T11:34:30.558Z,13.93
2019-02-04T11:37:06.024Z,12.53
2019-02-04T11:39:36.034Z,12.20
2019-02-04T11:42:06.230Z,14.73
2019-02-04T11:44:36.244Z,12.37
2019-02-04T11:47:06.405Z,13.37
2019-02-04T11:49:36.480Z,13.60
2019-02-04T11:52:06.615Z,12.93
2019-02-04T11:54:36.655Z,13.97
2019-02-04T11:57:06.780Z,15.47
2019-02-04T11:59:36.786Z,13.20
2019-02-04T12:04:58.397Z,16.33
2019-02-04T12:13:06.331Z,12.13
2019-02-04T12:15:36.413Z,15.63
2019-02-04T12:18:06.613Z,16.83
2019-02-04T12:20:39.724Z,14.13
2019-02-04T12:23:06.965Z,14.63
2019-02-04T12:25:37.173Z,14.73
2019-02-04T12:28:07.289Z,15.80
2019-02-04T12:30:39.395Z,18.73
2019-02-04T12:33:11.500Z,15.97
2019-02-04T12:35:41.652Z,15.93
2019-02-04T12:38:12.082Z,16.43
2019-02-04T12:43:33.133Z,18.33
2019-02-04T12:46:03.154Z,18.43
2019-02-04T12:48:33.219Z,19.17
2019-02-04T12:51:03.248Z,16.47
2019-02-04T12:53:33.404Z,20.50
2019-02-04T12:56:03.531Z,18.37
2019-02-04T12:58:33.659Z,19.27
2019-02-04T13:01:03.828Z,21.10
2019-02-04T13:03:34.004Z,22.17
2019-02-04T13:06:05.426Z,22.87
2019-02-04T13:08:35.524Z,21.23
2019-02-04T13:11:05.679Z,14.77
2019-02-04T13:13:35.897Z,19.20
2019-02-04T13:16:06.124Z,17.60
2019-02-04T13:18:36.296Z,20.03
2019-02-04T13:21:06.371Z,18.67
2019-02-04T13:23:36.460Z,20.33
2019-02-04T13:26:06.479Z,17.20
2019-02-04T13:28:36.655Z,20.50
2019-02-04T13:31:06.816Z,19.20
2019-02-04T13:33:36.963Z,20.53
2019-02-04T13:36:06.648Z,19.43
2019-02-04T13:38:37.016Z,17.47
2019-02-04T13:41:08.546Z,16.67
2019-02-04T13:43:37.216Z,20.70
2019-02-04T13:46:07.272Z,18.80
2019-02-04T13:48:37.316Z,18.27
2019-02-04T13:51:07.351Z,17.37
2019-02-04T13:53:37.424Z,20.90
2019-02-04T13:56:07.521Z,21.23
2019-02-04T13:58:37.631Z,20.30
2019-02-04T14:01:07.690Z,20.00
2019-02-04T14:03:37.818Z,20.63
2019-02-04T14:06:08.184Z,17.00
2019-02-04T14:08:38.307Z,22.43
2019-02-04T14:11:08.445Z,24.00
2019-02-04T14:13:38.976Z,22.27
2019-02-04T14:16:09.129Z,19.73
2019-02-04T14:18:39.184Z,20.60
2019-02-04T14:21:09.243Z,27.10
2019-02-04T14:23:39.427Z,20.77
2019-02-04T14:26:09.439Z,19.83
2019-02-04T14:28:39.535Z,21.80
2019-02-04T14:31:09.632Z,21.07
2019-02-04T14:33:39.695Z,25.37
2019-02-04T14:36:09.735Z,22.27
2019-02-04T14:38:39.894Z,21.90
2019-02-04T14:41:09.927Z,23.57
2019-02-04T14:43:48.477Z,24.67
2019-02-04T14:46:27.507Z,21.63
2019-02-04T14:51:30.715Z,18.40
2019-02-04T14:55:20.897Z,21.40
2019-02-04T14:58:02.892Z,22.27
2019-02-04T15:00:44.830Z,21.80
2019-02-04T15:03:32.111Z,21.63
2019-02-04T15:06:12.679Z,23.63
2019-02-04T15:10:58.579Z,21.33
2019-02-04T15:15:42.552Z,21.40
2019-02-04T15:18:21.041Z,20.10
2019-02-04T15:21:17.796Z,20.63
2019-02-04T15:24:16.528Z,20.80
2019-02-04T15:27:05.340Z,22.07
2019-02-04T15:29:47.070Z,22.37
2019-02-04T15:34:34.401Z,24.23
2019-02-04T15:37:07.759Z,26.90
2019-02-04T15:40:00.608Z,21.37
2019-02-04T15:42:39.355Z,26.47
2019-02-04T15:45:17.884Z,24.60
2019-02-04T15:47:52.643Z,22.63
2019-02-04T15:50:39.259Z,21.03
2019-02-04T15:58:08.374Z,27.93
2019-02-04T16:00:38.425Z,31.90
2019-02-04T16:03:08.608Z,22.83
2019-02-04T16:05:38.694Z,27.23
2019-02-04T16:08:08.768Z,25.63
2019-02-04T16:10:38.808Z,27.40
2019-02-04T16:13:08.921Z,25.43
2019-02-04T16:15:42.150Z,29.53
2019-02-04T16:18:09.208Z,25.43
2019-02-04T16:20:39.692Z,22.47
2019-02-04T16:23:09.867Z,23.30
2019-02-04T16:25:39.938Z,21.80
2019-02-04T16:28:10.034Z,22.93
2019-02-04T16:30:40.281Z,19.77
2019-02-04T16:33:10.431Z,21.83
2019-02-04T16:35:40.477Z,19.77
2019-02-04T16:38:10.764Z,23.77
2019-02-04T16:40:41.116Z,21.23
2019-02-04T16:43:11.187Z,21.43
2019-02-04T16:45:41.203Z,22.10
2019-02-04T16:48:11.291Z,20.73
2019-02-04T16:50:41.339Z,24.40
2019-02-04T16:53:11.410Z,28.57
2019-02-04T16:55:41.462Z,34.07
2019-02-04T16:58:11.677Z,31.37
2019-02-04T17:00:41.707Z,33.23
2019-02-04T17:03:11.772Z,47.83
2019-02-04T17:05:41.824Z,41.90
2019-02-04T17:08:11.996Z,35.73
2019-02-04T17:10:42.024Z,29.67
2019-02-04T17:13:12.164Z,35.73
2019-02-04T17:15:42.209Z,35.53
2019-02-04T17:18:12.536Z,39.63
2019-02-04T17:20:44.703Z,45.13
2019-02-04T17:23:22.109Z,45.83
2019-02-04T17:25:42.891Z,48.30
2019-02-04T17:28:13.019Z,48.97
2019-02-04T17:30:43.057Z,53.77
2019-02-04T17:33:13.164Z,47.80
2019-02-04T17:35:43.217Z,48.37
2019-02-04T17:38:13.296Z,45.97
2019-02-04T17:40:43.756Z,47.63
2019-02-04T17:43:31.816Z,47.73
2019-02-04T17:46:01.973Z,52.57
2019-02-04T17:48:32.035Z,54.37
2019-02-04T17:51:02.169Z,34.33
2019-02-04T17:53:34.179Z,37.70
2019-02-04T17:56:03.057Z,22.30
2019-02-04T17:58:33.151Z,13.73
2019-02-04T18:01:03.391Z,18.47
2019-02-04T18:03:33.570Z,24.33
2019-02-04T18:06:03.708Z,27.97
2019-02-04T18:08:33.784Z,17.50
2019-02-04T18:11:03.856Z,26.23
2019-02-04T18:13:33.911Z,33.33
2019-02-04T18:16:04.088Z,33.40
2019-02-04T18:18:34.207Z,29.43
2019-02-04T18:21:04.366Z,56.47
2019-02-04T18:23:45.356Z,60.03
2019-02-04T18:26:04.627Z,70.03
2019-02-04T18:28:34.735Z,167.97
2019-02-04T18:31:04.910Z,29.23
2019-02-04T18:33:35.068Z,34.00
2019-02-04T18:36:05.231Z,25.77
2019-02-04T18:38:35.290Z,10.40
2019-02-04T18:41:06.040Z,8.83
2019-02-04T18:43:35.515Z,14.83
2019-02-04T18:46:05.674Z,16.30
2019-02-04T18:48:35.952Z,15.17
2019-02-04T18:51:06.099Z,19.10
2019-02-04T18:53:36.185Z,17.33
2019-02-04T18:56:06.389Z,16.23
2019-02-04T18:58:36.471Z,19.03
2019-02-04T19:01:05.912Z,16.37
2019-02-04T19:03:35.896Z,30.10
2019-02-04T19:06:06.077Z,35.03
2019-02-04T19:08:36.127Z,47.57
2019-02-04T19:11:06.288Z,43.73
2019-02-04T19:13:36.603Z,41.60
2019-02-04T19:16:06.483Z,45.47
2019-02-04T19:18:36.492Z,50.43
2019-02-04T19:21:06.558Z,63.07
2019-02-04T19:23:36.588Z,74.63
2019-02-04T19:26:06.738Z,61.63
2019-02-04T19:28:36.781Z,70.00
2019-02-04T19:31:11.232Z,83.57
2019-02-04T19:33:41.259Z,85.73
2019-02-04T19:36:11.825Z,84.00
2019-02-04T19:38:41.902Z,85.77
2019-02-04T19:41:12.280Z,87.40
2019-02-04T19:43:42.320Z,74.80
2019-02-04T19:46:12.460Z,86.33
2019-02-04T19:48:42.601Z,78.00
2019-02-04T19:51:12.795Z,73.33
2019-02-04T19:53:42.920Z,67.13
2019-02-04T19:57:15.857Z,65.28
2019-02-04T19:59:46.399Z,69.30
2019-02-04T20:02:16.621Z,51.17
2019-02-04T20:04:47.032Z,52.30
2019-02-04T20:07:17.210Z,55.73
2019-02-04T20:09:47.226Z,57.23
2019-02-04T20:12:17.347Z,52.65
2019-02-04T20:14:47.413Z,58.00
2019-02-04T20:17:17.532Z,67.30
2019-02-04T20:19:47.575Z,58.48
2019-02-04T20:22:17.974Z,58.23
2019-02-04T20:24:48.024Z,54.88
2019-02-04T20:27:18.189Z,51.20
2019-02-04T20:29:48.224Z,46.42
2019-02-04T20:32:18.324Z,43.83
2019-02-04T20:34:48.163Z,46.63
2019-02-04T20:37:18.195Z,46.77
2019-02-04T20:39:47.993Z,50.98
2019-02-04T20:42:18.437Z,49.13
2019-02-04T20:44:48.180Z,43.17
2019-02-04T20:47:18.992Z,54.40
2019-02-04T20:49:49.121Z,48.02
2019-02-04T20:52:19.599Z,47.80
2019-02-04T20:54:50.049Z,47.50
2019-02-04T20:57:20.488Z,56.85
2019-02-04T20:59:50.590Z,84.42
2019-02-04T21:02:21.103Z,112.95
2019-02-04T21:04:51.160Z,119.55
2019-02-04T21:07:31.020Z,107.75
2019-02-04T21:10:01.473Z,117.55
2019-02-04T21:12:31.675Z,104.05
2019-02-04T21:15:02.002Z,101.38
2019-02-04T21:17:32.515Z,97.08
2019-02-04T21:20:02.795Z,105.95
2019-02-04T21:22:33.374Z,97.08
2019-02-04T21:25:04.051Z,90.10
2019-02-04T21:27:34.436Z,85.15
2019-02-04T21:30:13.031Z,100.53
2019-02-04T21:32:43.535Z,98.42
2019-02-04T21:35:14.027Z,96.90
2019-02-04T21:37:44.557Z,85.90
2019-02-04T21:40:15.115Z,80.95
2019-02-04T21:42:45.659Z,79.22
2019-02-04T21:45:17.780Z,90.97
2019-02-04T21:47:48.397Z,100.70
2019-02-04T21:50:21.695Z,104.10
2019-02-04T21:52:52.217Z,114.10
2019-02-04T21:55:23.090Z,93.05
2019-02-04T21:57:53.599Z,76.85
2019-02-04T22:00:27.345Z,84.40
2019-02-04T22:02:57.695Z,108.80
2019-02-04T22:05:29.331Z,104.30
2019-02-04T22:07:59.438Z,120.35
2019-02-04T22:10:30.311Z,136.57
2019-02-04T22:13:00.731Z,138.47
2019-02-04T22:15:31.119Z,162.47
2019-02-04T22:18:01.569Z,230.75
2019-02-04T22:20:31.999Z,207.62
2019-02-04T22:23:02.416Z,208.82
2019-02-04T22:25:32.887Z,196.75
2019-02-04T22:28:03.366Z,156.60
2019-02-04T22:30:33.787Z,126.50
2019-02-04T22:33:03.606Z,332.98
2019-02-04T22:35:33.836Z,399.70
2019-02-04T22:38:04.324Z,362.05
2019-02-04T22:40:34.793Z,177.35
2019-02-04T22:43:04.637Z,116.73
2019-02-04T22:45:34.906Z,110.57
2019-02-04T22:48:05.496Z,100.18
2019-02-04T22:50:35.990Z,92.53
2019-02-04T22:53:06.348Z,97.82
2019-02-04T22:55:36.743Z,106.58
2019-02-04T22:58:07.401Z,111.70
2019-02-04T23:00:47.690Z,118.95
2019-02-04T23:03:18.646Z,129.25
2019-02-04T23:05:48.841Z,141.82
2019-02-04T23:08:18.645Z,124.05
2019-02-04T23:10:48.353Z,122.70
2019-02-04T23:13:18.151Z,112.88
2019-02-04T23:15:47.923Z,117.22
2019-02-04T23:18:17.654Z,121.02
2019-02-04T23:20:47.484Z,132.60
2019-02-04T23:23:17.168Z,125.05
2019-02-04T23:25:46.915Z,100.25
2019-02-04T23:28:16.727Z,97.57
2019-02-04T23:30:46.909Z,107.95
2019-02-04T23:33:17.071Z,123.40
2019-02-04T23:35:47.199Z,103.38
2019-02-04T23:38:17.357Z,99.77
2019-02-04T23:40:47.571Z,81.90
2019-02-04T23:43:17.701Z,92.33
2019-02-04T23:45:47.236Z,89.90
2019-02-04T23:48:17.285Z,91.08
2019-02-04T23:50:47.405Z,83.20
2019-02-04T23:53:17.527Z,93.85
2019-02-04T23:55:54.342Z,80.67
2019-02-04T23:58:17.827Z,75.28
